Nesco, New Jersey
Current Conditions -  °F | °C
As of 5:54 AM on Friday 24 Oct 2014 (Local Time) from KACY Reporting Station
Few Clouds Few Clouds  
Wind Chill: 46°   Ceiling: Unl
Heat Index: 46°   Visibility: 10mi
Dew Point: 44°   Wind: 3mph
Humidity: 93%   Direction: 330°NNW
Pressure: 29.83"   Gusts: NA
Location:  39.637°N, 74.7602°W
Report Text: KACY 240954Z 33003KT 10SM FEW090 08/07 A2983 RMK AO2 SLP100 T00780067
Loading
Personal Weather Stations






























Interactive Weather Map
Tropical Storm Tracking
New forecast layout! Learn more

10-Day Weather Forecast

Advertisements
Track Severe Weather on mobile